sensor_id;sensor_type;location;lat;lon;timestamp;pressure;altitude;pressure_sealevel;temperature;humidity
55271;BME280;41132;47.162;9.470;2023-04-30T00:01:18;96533.97;;;13.13;100.00
55271;BME280;41132;47.162;9.470;2023-04-30T00:03:44;96532.81;;;13.16;100.00
55271;BME280;41132;47.162;9.470;2023-04-30T00:06:09;96544.66;;;13.20;100.00
55271;BME280;41132;47.162;9.470;2023-04-30T00:08:34;96533.16;;;13.13;100.00
55271;BME280;41132;47.162;9.470;2023-04-30T00:11:00;96538.44;;;13.13;100.00
55271;BME280;41132;47.162;9.470;2023-04-30T00:13:25;96542.22;;;13.10;100.00
55271;BME280;41132;47.162;9.470;2023-04-30T00:15:50;96530.91;;;13.02;100.00
55271;BME280;41132;47.162;9.470;2023-04-30T00:18:16;96544.38;;;13.07;100.00
55271;BME280;41132;47.162;9.470;2023-04-30T00:20:41;96539.91;;;13.07;100.00
55271;BME280;41132;47.162;9.470;2023-04-30T00:23:07;96540.72;;;13.08;100.00
55271;BME280;41132;47.162;9.470;2023-04-30T00:25:32;96538.25;;;13.14;100.00
55271;BME280;41132;47.162;9.470;2023-04-30T00:27:57;96532.16;;;13.14;100.00
55271;BME280;41132;47.162;9.470;2023-04-30T00:30:23;96535.59;;;13.14;100.00
55271;BME280;41132;47.162;9.470;2023-04-30T00:32:48;96550.06;;;13.27;100.00
55271;BME280;41132;47.162;9.470;2023-04-30T00:35:13;96535.44;;;13.24;100.00
55271;BME280;41132;47.162;9.470;2023-04-30T00:37:39;96532.00;;;13.15;100.00
55271;BME280;41132;47.162;9.470;2023-04-30T00:40:05;96543.84;;;13.20;100.00
55271;BME280;41132;47.162;9.470;2023-04-30T00:42:31;96531.69;;;13.10;100.00
55271;BME280;41132;47.162;9.470;2023-04-30T00:44:56;96532.66;;;13.18;100.00
55271;BME280;41132;47.162;9.470;2023-04-30T00:47:21;96538.56;;;13.20;100.00
55271;BME280;41132;47.162;9.470;2023-04-30T00:49:47;96536.44;;;13.15;100.00
55271;BME280;41132;47.162;9.470;2023-04-30T00:52:13;96541.72;;;13.15;100.00
55271;BME280;41132;47.162;9.470;2023-04-30T00:54:38;96530.69;;;13.11;100.00
55271;BME280;41132;47.162;9.470;2023-04-30T00:57:04;96531.84;;;13.09;100.00
55271;BME280;41132;47.162;9.470;2023-04-30T00:59:31;96526.94;;;12.98;100.00
55271;BME280;41132;47.162;9.470;2023-04-30T01:01:57;96542.56;;;13.07;100.00
55271;BME280;41132;47.162;9.470;2023-04-30T01:04:23;96523.66;;;12.95;100.00
55271;BME280;41132;47.162;9.470;2023-04-30T01:06:48;96526.44;;;13.02;100.00
55271;BME280;41132;47.162;9.470;2023-04-30T01:09:14;96518.69;;;13.01;100.00
55271;BME280;41132;47.162;9.470;2023-04-30T01:12:12;96532.22;;;13.06;100.00
55271;BME280;41132;47.162;9.470;2023-04-30T01:15:03;96532.06;;;12.91;100.00
55271;BME280;41132;47.162;9.470;2023-04-30T01:17:38;96539.97;;;12.91;100.00
55271;BME280;41132;47.162;9.470;2023-04-30T01:20:08;96533.25;;;12.80;100.00
55271;BME280;41132;47.162;9.470;2023-04-30T01:25:34;96546.72;;;12.93;100.00
55271;BME280;41132;47.162;9.470;2023-04-30T01:28:05;96546.56;;;12.87;100.00
55271;BME280;41132;47.162;9.470;2023-04-30T01:30:32;96548.22;;;12.88;100.00
55271;BME280;41132;47.162;9.470;2023-04-30T01:32:58;96553.31;;;12.89;100.00
55271;BME280;41132;47.162;9.470;2023-04-30T01:40:58;96550.88;;;12.80;100.00
55271;BME280;41132;47.162;9.470;2023-04-30T01:43:41;96548.59;;;12.77;100.00
55271;BME280;41132;47.162;9.470;2023-04-30T01:46:21;96561.91;;;12.83;100.00
55271;BME280;41132;47.162;9.470;2023-04-30T01:49:18;96552.34;;;12.90;100.00
55271;BME280;41132;47.162;9.470;2023-04-30T01:51:45;96548.09;;;12.73;100.00
55271;BME280;41132;47.162;9.470;2023-04-30T01:54:33;96555.31;;;12.79;100.00
55271;BME280;41132;47.162;9.470;2023-04-30T01:57:06;96532.78;;;12.60;100.00
55271;BME280;41132;47.162;9.470;2023-04-30T01:59:34;96536.09;;;12.62;100.00
55271;BME280;41132;47.162;9.470;2023-04-30T02:02:00;96557.16;;;12.70;100.00
55271;BME280;41132;47.162;9.470;2023-04-30T02:04:25;96557.78;;;12.81;100.00
55271;BME280;41132;47.162;9.470;2023-04-30T02:06:51;96558.94;;;12.78;100.00
55271;BME280;41132;47.162;9.470;2023-04-30T02:09:16;96551.88;;;12.79;100.00
55271;BME280;41132;47.162;9.470;2023-04-30T02:11:42;96520.63;;;12.59;100.00
55271;BME280;41132;47.162;9.470;2023-04-30T02:14:07;96555.63;;;12.76;100.00
55271;BME280;41132;47.162;9.470;2023-04-30T02:16:33;96531.81;;;12.61;100.00
55271;BME280;41132;47.162;9.470;2023-04-30T02:18:58;96549.91;;;12.64;100.00
55271;BME280;41132;47.162;9.470;2023-04-30T02:21:23;96547.94;;;12.74;100.00
55271;BME280;41132;47.162;9.470;2023-04-30T02:23:49;96541.69;;;12.67;100.00
55271;BME280;41132;47.162;9.470;2023-04-30T02:26:14;96524.59;;;12.55;100.00
55271;BME280;41132;47.162;9.470;2023-04-30T02:28:39;96512.09;;;12.49;100.00
55271;BME280;41132;47.162;9.470;2023-04-30T02:31:05;96502.88;;;12.53;100.00
55271;BME280;41132;47.162;9.470;2023-04-30T02:33:30;96538.06;;;12.68;100.00
55271;BME280;41132;47.162;9.470;2023-04-30T02:35:58;96542.81;;;12.73;100.00
55271;BME280;41132;47.162;9.470;2023-04-30T02:38:24;96537.09;;;12.69;100.00
55271;BME280;41132;47.162;9.470;2023-04-30T02:40:49;96508.00;;;12.38;100.00
55271;BME280;41132;47.162;9.470;2023-04-30T02:43:15;96533.94;;;12.74;100.00
55271;BME280;41132;47.162;9.470;2023-04-30T02:45:40;96509.75;;;12.62;100.00
55271;BME280;41132;47.162;9.470;2023-04-30T02:48:06;96525.03;;;12.83;100.00
55271;BME280;41132;47.162;9.470;2023-04-30T02:50:31;96523.72;;;12.79;100.00
55271;BME280;41132;47.162;9.470;2023-04-30T02:52:56;96508.25;;;12.76;100.00
55271;BME280;41132;47.162;9.470;2023-04-30T02:55:22;96507.78;;;12.72;100.00
55271;BME280;41132;47.162;9.470;2023-04-30T02:57:47;96528.19;;;12.79;100.00
55271;BME280;41132;47.162;9.470;2023-04-30T03:00:13;96522.91;;;12.79;100.00
55271;BME280;41132;47.162;9.470;2023-04-30T03:02:39;96526.56;;;12.61;100.00
55271;BME280;41132;47.162;9.470;2023-04-30T03:05:05;96516.69;;;12.55;100.00
55271;BME280;41132;47.162;9.470;2023-04-30T03:07:30;96534.94;;;12.65;100.00
55271;BME280;41132;47.162;9.470;2023-04-30T03:09:55;96528.19;;;12.70;100.00
55271;BME280;41132;47.162;9.470;2023-04-30T03:12:21;96521.28;;;12.61;100.00
55271;BME280;41132;47.162;9.470;2023-04-30T03:14:46;96525.25;;;12.65;100.00
55271;BME280;41132;47.162;9.470;2023-04-30T03:17:12;96513.03;;;12.64;100.00
55271;BME280;41132;47.162;9.470;2023-04-30T03:19:37;96523.09;;;12.61;100.00
55271;BME280;41132;47.162;9.470;2023-04-30T03:22:02;96519.13;;;12.65;100.00
55271;BME280;41132;47.162;9.470;2023-04-30T03:24:28;96537.91;;;12.70;100.00
55271;BME280;41132;47.162;9.470;2023-04-30T03:26:53;96530.47;;;12.73;100.00
55271;BME280;41132;47.162;9.470;2023-04-30T03:29:18;96525.53;;;12.70;100.00
55271;BME280;41132;47.162;9.470;2023-04-30T03:31:44;96518.00;;;12.67;100.00
55271;BME280;41132;47.162;9.470;2023-04-30T03:34:09;96521.94;;;12.63;100.00
55271;BME280;41132;47.162;9.470;2023-04-30T03:36:35;96522.91;;;12.62;100.00
55271;BME280;41132;47.162;9.470;2023-04-30T03:39:01;96516.84;;;12.70;100.00
55271;BME280;41132;47.162;9.470;2023-04-30T03:41:26;96494.16;;;12.52;100.00
55271;BME280;41132;47.162;9.470;2023-04-30T03:43:51;96495.97;;;12.44;100.00
55271;BME280;41132;47.162;9.470;2023-04-30T03:46:17;96518.34;;;12.48;100.00
55271;BME280;41132;47.162;9.470;2023-04-30T03:48:42;96523.63;;;12.56;100.00
55271;BME280;41132;47.162;9.470;2023-04-30T03:51:08;96529.69;;;12.48;100.00
55271;BME280;41132;47.162;9.470;2023-04-30T03:53:34;96519.81;;;12.59;100.00
55271;BME280;41132;47.162;9.470;2023-04-30T03:56:00;96507.81;;;12.48;100.00
55271;BME280;41132;47.162;9.470;2023-04-30T03:58:26;96498.28;;;12.39;100.00
55271;BME280;41132;47.162;9.470;2023-04-30T04:00:51;96504.03;;;12.50;100.00
55271;BME280;41132;47.162;9.470;2023-04-30T04:03:16;96514.72;;;12.49;100.00
55271;BME280;41132;47.162;9.470;2023-04-30T04:05:42;96499.75;;;12.41;100.00
55271;BME280;41132;47.162;9.470;2023-04-30T04:08:07;96503.06;;;12.43;100.00
55271;BME280;41132;47.162;9.470;2023-04-30T04:10:33;96502.06;;;12.44;100.00
55271;BME280;41132;47.162;9.470;2023-04-30T04:12:59;96503.91;;;12.36;100.00
55271;BME280;41132;47.162;9.470;2023-04-30T04:15:24;96502.25;;;12.43;100.00
55271;BME280;41132;47.162;9.470;2023-04-30T04:17:50;96498.13;;;12.40;100.00
55271;BME280;41132;47.162;9.470;2023-04-30T04:20:15;96506.34;;;12.37;100.00
55271;BME280;41132;47.162;9.470;2023-04-30T04:22:41;96511.09;;;12.42;100.00
55271;BME280;41132;47.162;9.470;2023-04-30T04:25:07;96504.72;;;12.36;100.00
55271;BME280;41132;47.162;9.470;2023-04-30T04:27:33;96499.63;;;12.43;100.00
55271;BME280;41132;47.162;9.470;2023-04-30T04:30:00;96509.16;;;12.36;100.00
55271;BME280;41132;47.162;9.470;2023-04-30T04:32:26;96506.69;;;12.34;100.00
55271;BME280;41132;47.162;9.470;2023-04-30T04:34:51;96501.09;;;12.37;100.00
55271;BME280;41132;47.162;9.470;2023-04-30T04:37:18;96518.00;;;12.51;100.00
55271;BME280;41132;47.162;9.470;2023-04-30T04:39:44;96513.75;;;12.50;100.00
55271;BME280;41132;47.162;9.470;2023-04-30T04:42:09;96494.19;;;12.36;100.00
55271;BME280;41132;47.162;9.470;2023-04-30T04:44:34;96516.38;;;12.50;100.00
55271;BME280;41132;47.162;9.470;2023-04-30T04:47:00;96517.03;;;12.52;100.00
55271;BME280;41132;47.162;9.470;2023-04-30T04:49:27;96519.50;;;12.53;100.00
55271;BME280;41132;47.162;9.470;2023-04-30T04:51:52;96520.16;;;12.39;100.00
55271;BME280;41132;47.162;9.470;2023-04-30T04:54:18;96499.44;;;12.28;100.00
55271;BME280;41132;47.162;9.470;2023-04-30T04:56:43;96516.19;;;12.60;100.00
55271;BME280;41132;47.162;9.470;2023-04-30T04:59:08;96508.28;;;12.60;100.00
55271;BME280;41132;47.162;9.470;2023-04-30T05:01:34;96513.19;;;12.71;100.00
55271;BME280;41132;47.162;9.470;2023-04-30T05:03:59;96496.97;;;12.35;100.00
55271;BME280;41132;47.162;9.470;2023-04-30T05:06:24;96520.81;;;12.49;100.00
55271;BME280;41132;47.162;9.470;2023-04-30T05:08:51;96530.84;;;12.54;100.00
55271;BME280;41132;47.162;9.470;2023-04-30T05:11:16;96515.53;;;12.66;100.00
55271;BME280;41132;47.162;9.470;2023-04-30T05:13:41;96524.06;;;12.68;100.00
55271;BME280;41132;47.162;9.470;2023-04-30T05:16:07;96526.38;;;12.71;100.00
55271;BME280;41132;47.162;9.470;2023-04-30T05:18:32;96502.25;;;12.43;100.00
55271;BME280;41132;47.162;9.470;2023-04-30T05:20:57;96507.63;;;12.58;100.00
55271;BME280;41132;47.162;9.470;2023-04-30T05:23:23;96535.28;;;12.62;100.00
55271;BME280;41132;47.162;9.470;2023-04-30T05:25:51;96520.16;;;12.39;100.00
55271;BME280;41132;47.162;9.470;2023-04-30T05:28:17;96527.88;;;12.49;100.00
55271;BME280;41132;47.162;9.470;2023-04-30T05:30:42;96498.13;;;12.24;100.00
55271;BME280;41132;47.162;9.470;2023-04-30T05:33:08;96520.00;;;12.32;100.00
55271;BME280;41132;47.162;9.470;2023-04-30T05:35:33;96516.06;;;12.37;100.00
55271;BME280;41132;47.162;9.470;2023-04-30T05:38:00;96540.69;;;12.60;100.00
55271;BME280;41132;47.162;9.470;2023-04-30T05:40:27;96525.91;;;12.59;100.00
55271;BME280;41132;47.162;9.470;2023-04-30T05:42:52;96536.28;;;12.61;100.00
55271;BME280;41132;47.162;9.470;2023-04-30T05:45:18;96531.84;;;12.45;100.00
55271;BME280;41132;47.162;9.470;2023-04-30T05:47:43;96529.03;;;12.54;100.00
55271;BME280;41132;47.162;9.470;2023-04-30T05:50:09;96541.72;;;12.43;100.00
55271;BME280;41132;47.162;9.470;2023-04-30T05:52:34;96538.25;;;12.50;100.00
55271;BME280;41132;47.162;9.470;2023-04-30T05:55:00;96532.19;;;12.33;100.00
55271;BME280;41132;47.162;9.470;2023-04-30T05:57:25;96518.84;;;12.35;100.00
55271;BME280;41132;47.162;9.470;2023-04-30T05:59:50;96529.53;;;12.58;100.00
55271;BME280;41132;47.162;9.470;2023-04-30T06:02:16;96528.34;;;12.69;100.00
55271;BME280;41132;47.162;9.470;2023-04-30T06:04:41;96517.84;;;12.61;100.00
55271;BME280;41132;47.162;9.470;2023-04-30T06:07:07;96530.50;;;12.65;100.00
55271;BME280;41132;47.162;9.470;2023-04-30T06:09:33;96514.72;;;12.57;100.00
55271;BME280;41132;47.162;9.470;2023-04-30T06:11:58;96532.63;;;12.62;100.00
55271;BME280;41132;47.162;9.470;2023-04-30T06:14:24;96538.41;;;12.65;100.00
55271;BME280;41132;47.162;9.470;2023-04-30T06:16:50;96532.78;;;12.68;100.00
55271;BME280;41132;47.162;9.470;2023-04-30T06:19:15;96535.22;;;12.78;100.00
55271;BME280;41132;47.162;9.470;2023-04-30T06:21:41;96532.44;;;12.88;100.00
55271;BME280;41132;47.162;9.470;2023-04-30T06:24:08;96539.00;;;12.84;100.00
55271;BME280;41132;47.162;9.470;2023-04-30T06:26:33;96534.06;;;12.89;100.00
55271;BME280;41132;47.162;9.470;2023-04-30T06:28:59;96535.06;;;12.80;100.00
55271;BME280;41132;47.162;9.470;2023-04-30T06:31:24;96531.78;;;12.86;100.00
55271;BME280;41132;47.162;9.470;2023-04-30T06:33:50;96539.63;;;12.94;100.00
55271;BME280;41132;47.162;9.470;2023-04-30T06:36:16;96536.81;;;13.04;100.00
55271;BME280;41132;47.162;9.470;2023-04-30T06:38:42;96518.69;;;13.01;100.00
55271;BME280;41132;47.162;9.470;2023-04-30T06:41:08;96522.50;;;12.98;100.00
55271;BME280;41132;47.162;9.470;2023-04-30T06:43:33;96529.38;;;13.07;100.00
55271;BME280;41132;47.162;9.470;2023-04-30T06:45:59;96526.53;;;13.17;100.00
55271;BME280;41132;47.162;9.470;2023-04-30T06:48:25;96539.84;;;13.24;100.00
55271;BME280;41132;47.162;9.470;2023-04-30T06:50:50;96521.59;;;13.22;100.00
55271;BME280;41132;47.162;9.470;2023-04-30T06:53:16;96540.88;;;13.31;100.00
55271;BME280;41132;47.162;9.470;2023-04-30T06:55:41;96520.81;;;13.13;100.00
55271;BME280;41132;47.162;9.470;2023-04-30T06:58:07;96534.03;;;12.97;100.00
55271;BME280;41132;47.162;9.470;2023-04-30T07:00:36;96531.31;;;13.22;100.00
55271;BME280;41132;47.162;9.470;2023-04-30T07:03:01;96520.22;;;13.43;100.00
55271;BME280;41132;47.162;9.470;2023-04-30T07:05:31;96510.63;;;13.42;100.00
55271;BME280;41132;47.162;9.470;2023-04-30T07:07:59;96526.50;;;13.65;100.00
55271;BME280;41132;47.162;9.470;2023-04-30T07:10:25;96528.50;;;13.63;100.00
55271;BME280;41132;47.162;9.470;2023-04-30T07:12:51;96524.09;;;13.78;100.00
55271;BME280;41132;47.162;9.470;2023-04-30T07:15:16;96531.84;;;13.79;100.00
55271;BME280;41132;47.162;9.470;2023-04-30T07:17:41;96527.47;;;13.95;100.00
55271;BME280;41132;47.162;9.470;2023-04-30T07:20:07;96520.88;;;14.14;100.00
55271;BME280;41132;47.162;9.470;2023-04-30T07:22:33;96524.03;;;13.94;100.00
55271;BME280;41132;47.162;9.470;2023-04-30T07:24:59;96526.75;;;14.24;100.00
55271;BME280;41132;47.162;9.470;2023-04-30T07:27:27;96524.16;;;14.16;100.00
55271;BME280;41132;47.162;9.470;2023-04-30T07:29:53;96520.44;;;14.10;100.00
55271;BME280;41132;47.162;9.470;2023-04-30T07:32:18;96491.94;;;14.06;100.00
55271;BME280;41132;47.162;9.470;2023-04-30T07:34:44;96522.19;;;14.18;100.00
55271;BME280;41132;47.162;9.470;2023-04-30T07:37:10;96519.59;;;14.10;100.00
55271;BME280;41132;47.162;9.470;2023-04-30T07:39:35;96526.66;;;13.94;100.00
55271;BME280;41132;47.162;9.470;2023-04-30T07:42:04;96514.28;;;13.95;100.00
55271;BME280;41132;47.162;9.470;2023-04-30T07:44:30;96506.28;;;13.80;100.00
55271;BME280;41132;47.162;9.470;2023-04-30T07:46:55;96510.47;;;13.74;100.00
55271;BME280;41132;47.162;9.470;2023-04-30T07:49:21;96504.31;;;13.82;100.00
55271;BME280;41132;47.162;9.470;2023-04-30T07:51:46;96511.63;;;13.95;100.00
55271;BME280;41132;47.162;9.470;2023-04-30T07:54:12;96492.03;;;13.89;100.00
55271;BME280;41132;47.162;9.470;2023-04-30T07:56:37;96510.28;;;13.99;100.00
55271;BME280;41132;47.162;9.470;2023-04-30T07:59:02;96497.84;;;14.08;100.00
55271;BME280;41132;47.162;9.470;2023-04-30T08:01:28;96513.72;;;14.23;100.00
55271;BME280;41132;47.162;9.470;2023-04-30T08:03:53;96503.28;;;14.44;100.00
55271;BME280;41132;47.162;9.470;2023-04-30T08:06:19;96500.53;;;14.37;100.00
55271;BME280;41132;47.162;9.470;2023-04-30T08:08:44;96495.97;;;14.54;100.00
55271;BME280;41132;47.162;9.470;2023-04-30T08:11:10;96511.75;;;15.22;100.00
55271;BME280;41132;47.162;9.470;2023-04-30T08:13:36;96510.03;;;15.51;100.00
55271;BME280;41132;47.162;9.470;2023-04-30T08:16:02;96515.69;;;15.62;100.00
55271;BME280;41132;47.162;9.470;2023-04-30T08:18:28;96512.75;;;15.57;100.00
55271;BME280;41132;47.162;9.470;2023-04-30T08:20:53;96510.28;;;16.35;100.00
55271;BME280;41132;47.162;9.470;2023-04-30T08:23:19;96498.91;;;17.46;100.00
55271;BME280;41132;47.162;9.470;2023-04-30T08:25:44;96504.41;;;18.39;89.91
55271;BME280;41132;47.162;9.470;2023-04-30T08:28:09;96497.44;;;18.05;82.11
55271;BME280;41132;47.162;9.470;2023-04-30T08:30:35;96495.59;;;17.92;85.88
55271;BME280;41132;47.162;9.470;2023-04-30T08:33:00;96493.88;;;17.78;87.04
55271;BME280;41132;47.162;9.470;2023-04-30T08:35:26;96460.66;;;17.20;87.70
55271;BME280;41132;47.162;9.470;2023-04-30T08:37:53;96484.66;;;17.05;93.23
55271;BME280;41132;47.162;9.470;2023-04-30T08:40:19;96491.97;;;16.97;90.22
55271;BME280;41132;47.162;9.470;2023-04-30T08:42:49;96490.28;;;16.89;90.49
55271;BME280;41132;47.162;9.470;2023-04-30T08:45:18;96490.88;;;16.56;96.93
55271;BME280;41132;47.162;9.470;2023-04-30T08:47:44;96478.81;;;16.25;96.87
55271;BME280;41132;47.162;9.470;2023-04-30T08:50:10;96479.84;;;16.53;100.00
55271;BME280;41132;47.162;9.470;2023-04-30T08:52:36;96491.81;;;16.42;100.00
55271;BME280;41132;47.162;9.470;2023-04-30T08:55:06;96491.97;;;16.40;99.74
55271;BME280;41132;47.162;9.470;2023-04-30T08:57:32;96479.84;;;16.03;98.41
55271;BME280;41132;47.162;9.470;2023-04-30T08:59:57;96494.13;;;16.30;100.00
55271;BME280;41132;47.162;9.470;2023-04-30T09:02:24;96486.84;;;16.11;96.47
55271;BME280;41132;47.162;9.470;2023-04-30T09:04:50;96493.44;;;16.21;100.00
55271;BME280;41132;47.162;9.470;2023-04-30T09:07:17;96472.94;;;16.02;100.00
55271;BME280;41132;47.162;9.470;2023-04-30T09:09:42;96490.53;;;15.88;100.00
55271;BME280;41132;47.162;9.470;2023-04-30T09:12:17;96477.34;;;15.73;100.00
55271;BME280;41132;47.162;9.470;2023-04-30T09:15:03;96482.72;;;16.01;100.00
55271;BME280;41132;47.162;9.470;2023-04-30T09:17:30;96486.34;;;16.00;98.81
55271;BME280;41132;47.162;9.470;2023-04-30T09:20:07;96486.34;;;16.00;98.29
55271;BME280;41132;47.162;9.470;2023-04-30T09:22:34;96487.38;;;16.27;94.05
55271;BME280;41132;47.162;9.470;2023-04-30T09:25:00;96478.34;;;16.15;92.08
55271;BME280;41132;47.162;9.470;2023-04-30T09:27:26;96472.47;;;17.18;98.93
55271;BME280;41132;47.162;9.470;2023-04-30T09:29:51;96473.94;;;17.95;90.93
55271;BME280;41132;47.162;9.470;2023-04-30T09:32:16;96470.03;;;18.71;81.72
55271;BME280;41132;47.162;9.470;2023-04-30T09:34:42;96465.47;;;19.05;85.48
55271;BME280;41132;47.162;9.470;2023-04-30T09:37:09;96469.88;;;19.76;79.84
55271;BME280;41132;47.162;9.470;2023-04-30T09:39:48;96448.63;;;20.26;74.43
55271;BME280;41132;47.162;9.470;2023-04-30T09:42:15;96431.00;;;20.69;69.00
55271;BME280;41132;47.162;9.470;2023-04-30T09:44:41;96462.72;;;21.32;64.11
55271;BME280;41132;47.162;9.470;2023-04-30T09:47:11;96466.50;;;21.24;59.09
55271;BME280;41132;47.162;9.470;2023-04-30T09:49:40;96459.53;;;20.86;62.91
55271;BME280;41132;47.162;9.470;2023-04-30T09:52:07;96461.16;;;21.92;63.85
55271;BME280;41132;47.162;9.470;2023-04-30T09:54:33;96454.81;;;21.74;59.66
55271;BME280;41132;47.162;9.470;2023-04-30T09:57:00;96466.16;;;21.39;61.84
55271;BME280;41132;47.162;9.470;2023-04-30T09:59:33;96429.47;;;21.65;63.28
55271;BME280;41132;47.162;9.470;2023-04-30T10:02:07;96455.22;;;22.55;63.91
55271;BME280;41132;47.162;9.470;2023-04-30T10:04:35;96449.72;;;21.84;62.48
55271;BME280;41132;47.162;9.470;2023-04-30T10:07:30;96443.13;;;21.57;60.01
55271;BME280;41132;47.162;9.470;2023-04-30T10:09:58;96439.59;;;21.44;59.91
55271;BME280;41132;47.162;9.470;2023-04-30T10:15:18;96440.94;;;21.35;65.71
55271;BME280;41132;47.162;9.470;2023-04-30T10:17:53;96439.09;;;21.96;57.12
55271;BME280;41132;47.162;9.470;2023-04-30T10:20:23;96426.72;;;21.83;60.67
55271;BME280;41132;47.162;9.470;2023-04-30T10:22:50;96437.50;;;21.77;59.79
55271;BME280;41132;47.162;9.470;2023-04-30T10:25:16;96431.19;;;21.11;61.60
55271;BME280;41132;47.162;9.470;2023-04-30T10:27:44;96422.94;;;20.94;61.81
55271;BME280;41132;47.162;9.470;2023-04-30T10:30:11;96420.06;;;20.77;65.75
55271;BME280;41132;47.162;9.470;2023-04-30T10:33:25;96421.44;;;20.17;64.07
55271;BME280;41132;47.162;9.470;2023-04-30T10:35:59;96409.91;;;20.85;63.08
55271;BME280;41132;47.162;9.470;2023-04-30T10:38:27;96411.94;;;20.72;67.55
55271;BME280;41132;47.162;9.470;2023-04-30T10:41:04;96394.31;;;20.45;68.63
55271;BME280;41132;47.162;9.470;2023-04-30T10:43:30;96396.59;;;19.67;67.93
55271;BME280;41132;47.162;9.470;2023-04-30T10:45:57;96381.78;;;19.77;74.95
55271;BME280;41132;47.162;9.470;2023-04-30T10:48:23;96384.00;;;19.87;74.55
55271;BME280;41132;47.162;9.470;2023-04-30T10:50:55;96380.94;;;19.84;71.22
55271;BME280;41132;47.162;9.470;2023-04-30T10:53:21;96383.59;;;19.84;77.31
55271;BME280;41132;47.162;9.470;2023-04-30T10:55:57;96376.94;;;19.68;74.26
55271;BME280;41132;47.162;9.470;2023-04-30T10:58:34;96376.84;;;19.49;75.80
55271;BME280;41132;47.162;9.470;2023-04-30T11:01:06;96374.16;;;19.17;73.45
55271;BME280;41132;47.162;9.470;2023-04-30T11:03:34;96375.84;;;19.05;71.07
55271;BME280;41132;47.162;9.470;2023-04-30T11:06:00;96374.03;;;19.06;71.03
55271;BME280;41132;47.162;9.470;2023-04-30T11:08:36;96363.06;;;18.75;71.19
55271;BME280;41132;47.162;9.470;2023-04-30T11:11:02;96374.53;;;18.83;72.28
55271;BME280;41132;47.162;9.470;2023-04-30T11:13:38;96377.19;;;18.83;70.74
55271;BME280;41132;47.162;9.470;2023-04-30T11:16:05;96367.19;;;18.71;74.06
55271;BME280;41132;47.162;9.470;2023-04-30T11:18:30;96360.03;;;18.72;71.33
55271;BME280;41132;47.162;9.470;2023-04-30T11:20:56;96361.56;;;18.99;72.09
55271;BME280;41132;47.162;9.470;2023-04-30T11:23:22;96360.69;;;18.61;70.47
55271;BME280;41132;47.162;9.470;2023-04-30T11:25:48;96366.25;;;18.32;70.07
55271;BME280;41132;47.162;9.470;2023-04-30T11:28:20;96361.78;;;18.20;70.03
55271;BME280;41132;47.162;9.470;2023-04-30T11:30:56;96355.03;;;18.30;71.31
55271;BME280;41132;47.162;9.470;2023-04-30T11:33:24;96355.88;;;18.18;71.98
55271;BME280;41132;47.162;9.470;2023-04-30T11:35:50;96361.53;;;18.34;72.24
55271;BME280;41132;47.162;9.470;2023-04-30T11:38:28;96369.94;;;18.25;72.67
55271;BME280;41132;47.162;9.470;2023-04-30T11:40:55;96354.47;;;18.02;68.63
55271;BME280;41132;47.162;9.470;2023-04-30T11:43:26;96361.78;;;18.20;71.64
55271;BME280;41132;47.162;9.470;2023-04-30T11:46:11;96355.25;;;18.15;70.74
55271;BME280;41132;47.162;9.470;2023-04-30T11:48:39;96364.44;;;18.20;70.69
55271;BME280;41132;47.162;9.470;2023-04-30T11:51:21;96351.16;;;18.26;71.31
55271;BME280;41132;47.162;9.470;2023-04-30T11:53:49;96340.09;;;18.29;71.76
55271;BME280;41132;47.162;9.470;2023-04-30T11:56:23;96348.25;;;18.41;71.20
55271;BME280;41132;47.162;9.470;2023-04-30T11:58:51;96345.22;;;18.38;68.81
55271;BME280;41132;47.162;9.470;2023-04-30T12:01:17;96336.03;;;18.33;72.51
55271;BME280;41132;47.162;9.470;2023-04-30T12:03:49;96337.41;;;18.49;66.52
55271;BME280;41132;47.162;9.470;2023-04-30T12:06:22;96331.31;;;18.35;70.45
55271;BME280;41132;47.162;9.470;2023-04-30T12:08:48;96337.88;;;18.26;66.04
55271;BME280;41132;47.162;9.470;2023-04-30T12:11:21;96318.53;;;17.86;65.58
55271;BME280;41132;47.162;9.470;2023-04-30T12:14:04;96332.81;;;17.91;66.19
55271;BME280;41132;47.162;9.470;2023-04-30T12:16:40;96324.44;;;17.94;70.06
55271;BME280;41132;47.162;9.470;2023-04-30T12:19:05;96323.22;;;17.90;69.76
55271;BME280;41132;47.162;9.470;2023-04-30T12:21:32;96309.72;;;18.05;69.65
55271;BME280;41132;47.162;9.470;2023-04-30T12:23:58;96309.72;;;18.05;69.96
55271;BME280;41132;47.162;9.470;2023-04-30T12:26:23;96318.06;;;18.22;74.26
55271;BME280;41132;47.162;9.470;2023-04-30T12:28:50;96311.34;;;18.13;69.07
55271;BME280;41132;47.162;9.470;2023-04-30T12:31:17;96298.25;;;18.11;66.32
55271;BME280;41132;47.162;9.470;2023-04-30T12:33:43;96307.66;;;18.07;67.81
55271;BME280;41132;47.162;9.470;2023-04-30T12:36:12;96296.22;;;18.07;69.46
55271;BME280;41132;47.162;9.470;2023-04-30T12:38:41;96310.75;;;18.04;70.09
55271;BME280;41132;47.162;9.470;2023-04-30T12:41:10;96316.41;;;18.21;72.24
55271;BME280;41132;47.162;9.470;2023-04-30T12:43:37;96315.03;;;18.05;68.25
55271;BME280;41132;47.162;9.470;2023-04-30T12:46:03;96296.50;;;17.85;68.02
55271;BME280;41132;47.162;9.470;2023-04-30T12:48:28;96293.84;;;17.85;68.81
55271;BME280;41132;47.162;9.470;2023-04-30T12:50:57;96276.69;;;17.81;68.45
55271;BME280;41132;47.162;9.470;2023-04-30T12:53:22;96297.28;;;17.99;69.57
55271;BME280;41132;47.162;9.470;2023-04-30T12:56:11;96296.66;;;18.04;66.75
55271;BME280;41132;47.162;9.470;2023-04-30T12:58:37;96300.75;;;18.00;68.24
55271;BME280;41132;47.162;9.470;2023-04-30T13:01:02;96293.81;;;17.99;66.84
55271;BME280;41132;47.162;9.470;2023-04-30T13:03:28;96297.66;;;18.09;68.51
55271;BME280;41132;47.162;9.470;2023-04-30T13:05:53;96274.81;;;17.95;69.05